Tubul — A8VP8 — position and weather

sailwx.info

Track history (hours):
 
Tides and Currents Weather Stations Pressure Air Temp Water Temp Dewpoint Dewpoint Depression Visibility Wind Speed Wind Dir Waves Ship Positions

Tubul

Last reported at 2018-Feb-07 04:00 UTC. Time now 2018-Feb-21 13:27 UTC.
Position N 31°03' E 032°19'.
Warning: this ship's position is 14 days out of date.

Length 300 m; draft 11.1 m.

Type: Ship (hazmat cat A). MMSI: 636014647.

Date/timePositionNaut miles runAvg speedWind from/ knotsBaromVisibWave heightAir tempDewpointWater temp
2018-Feb-07 04:00N 31°03' E 032°19'4 8.6
2018-Feb-07 03:30N 31°07' E 032°19'4 7.3
2018-Feb-07 02:59N 31°11' E 032°20'3 6.6
2018-Feb-07 02:30N 31°14' E 032°21'510.3
2018-Feb-07 02:00N 31°19' E 032°22'7 7.3
2018-Feb-07 01:00N 31°26' E 032°23'3 6.4
2018-Feb-07 00:29N 31°25' E 032°19'0 0.3
2018-Feb-06 23:59N 31°25' E 032°19'0 0.0
2018-Feb-06 23:20N 31°25' E 032°19'1 0.2
2018-Feb-06 20:34N 31°25' E 032°20'0 2.9
2018-Feb-06 20:30N 31°25' E 032°20'3 5.5
2018-Feb-06 20:00N 31°27' E 032°17'612.8
2018-Feb-06 19:30N 31°32' E 032°12'1717.3
2018-Feb-06 18:30N 31°43' E 031°57'917.9
2018-Feb-06 18:00N 31°38' E 031°48'  
2018-Feb-03 06:29N 35°07' E 017°50'4012.3
2018-Feb-03 03:13N 35°16' E 017°02'9511.6
2018-Feb-02 19:00N 35°41' E 015°09'511.1
2018-Feb-02 18:30N 35°42' E 015°03'611.0
2018-Feb-02 18:00N 35°44' E 014°56'511.0
2018-Feb-02 17:30N 35°46' E 014°50'611.1
2018-Feb-02 17:00N 35°47' E 014°43'611.3
2018-Feb-02 16:30N 35°48' E 014°36'3 3.2
2018-Feb-02 15:28N 35°49' E 014°32'0 0.0
2018-Feb-02 14:26N 35°49' E 014°32'0 0.0
2018-Feb-02 13:55N 35°49' E 014°32'0 0.0
2018-Feb-02 13:28N 35°49' E 014°32'0 0.0
2018-Feb-02 12:57N 35°49' E 014°32'0 0.0
2018-Feb-02 12:26N 35°49' E 014°32'0 0.0
2018-Feb-02 11:37N 35°49' E 014°32'0 0.0
2018-Feb-02 07:24N 35°49' E 014°32'0 0.0
2018-Feb-02 07:00N 35°49' E 014°32'1 1.3
2018-Feb-02 06:31N 35°49' E 014°33'4 7.2
2018-Feb-02 06:00N 35°47' E 014°36'5 9.5
2018-Feb-02 05:30N 35°44' E 014°32'5 9.4
2018-Feb-02 05:00N 35°43' E 014°26'713.1
2018-Feb-02 04:30N 35°47' E 014°19'917.3
2018-Feb-02 04:00N 35°53' E 014°12'918.6
2018-Feb-02 03:30N 36°00' E 014°05'1019.3
2018-Feb-02 03:00N 36°07' E 013°56'919.0
2018-Feb-02 02:30N 36°13' E 013°48'1019.2
2018-Feb-02 02:00N 36°20' E 013°39'1019.3
2018-Feb-02 01:30N 36°27' E 013°31'917.9
2018-Feb-02 01:00N 36°34' E 013°24'1018.4
2018-Feb-02 00:27N 36°39' E 013°13'2319.2
2018-Feb-01 23:15N 36°56' E 012°53'518.0
2018-Feb-01 22:58N 36°60' E 012°49'38920.2
2018-Feb-01 03:43N 42°59' E 009°36'1520.6
2018-Feb-01 03:01N 43°14' E 009°31'1020.1
2018-Feb-01 02:31N 43°23' E 009°27'1019.6
2018-Feb-01 02:01N 43°33' E 009°24'1019.8
2018-Feb-01 01:31N 43°42' E 009°19'1019.9
2018-Feb-01 01:01N 43°51' E 009°14'1019.8
2018-Feb-01 00:31N 44°00' E 009°09'1020.3
2018-Feb-01 00:01N 44°10' E 009°03'1515.4
2018-Jan-31 23:00N 44°24' E 008°55'0 0.7
2018-Jan-31 22:29N 44°24' E 008°55'0 0.0
2018-Jan-31 20:59N 44°24' E 008°55'0 0.0
2018-Jan-31 20:29N 44°24' E 008°55'0 0.0
2018-Jan-31 19:59N 44°24' E 008°55'0 0.0
2018-Jan-31 19:29N 44°24' E 008°55'0 0.0
2018-Jan-31 18:59N 44°24' E 008°55'0 0.0
2018-Jan-31 18:29N 44°24' E 008°55'0 0.0
2018-Jan-31 17:59N 44°24' E 008°55'0 0.0
2018-Jan-31 17:29N 44°24' E 008°55'0 0.0
2018-Jan-31 16:59N 44°24' E 008°55'0 0.0
2018-Jan-31 16:29N 44°24' E 008°55'0 0.0
2018-Jan-31 15:59N 44°24' E 008°55'0 0.0
2018-Jan-31 15:29N 44°24' E 008°55'0 0.0
2018-Jan-31 14:59N 44°24' E 008°55'0 0.0
2018-Jan-31 14:29N 44°24' E 008°55'0 0.0
2018-Jan-31 12:59N 44°24' E 008°55'0 0.0
2018-Jan-31 12:29N 44°24' E 008°55'0 0.0
2018-Jan-31 11:56N 44°24' E 008°55'0 0.0
2018-Jan-31 11:29N 44°24' E 008°55'0 0.0
2018-Jan-31 10:59N 44°24' E 008°55'0 0.0
2018-Jan-31 10:20N 44°24' E 008°55'0 0.0
2018-Jan-31 09:59N 44°24' E 008°55'0 0.0
2018-Jan-31 09:23N 44°24' E 008°55'0 0.0
2018-Jan-31 08:59N 44°24' E 008°55'0 0.0
2018-Jan-31 08:29N 44°24' E 008°55'0 0.0
2018-Jan-31 07:59N 44°24' E 008°55'0 0.0
2018-Jan-31 07:29N 44°24' E 008°55'0 0.0
2018-Jan-31 06:56N 44°24' E 008°55'0 0.0
2018-Jan-31 06:29N 44°24' E 008°55'0 0.0
2018-Jan-31 05:56N 44°24' E 008°55'0 0.0
2018-Jan-31 05:29N 44°24' E 008°55'0 0.0
2018-Jan-31 04:59N 44°24' E 008°55'0 0.0
2018-Jan-31 04:26N 44°24' E 008°55'0 0.0
2018-Jan-31 03:59N 44°24' E 008°55'0 0.0
2018-Jan-31 03:29N 44°24' E 008°55'0 0.0
2018-Jan-31 02:59N 44°24' E 008°55'0 0.0
2018-Jan-31 02:29N 44°24' E 008°55'0 0.0
2018-Jan-31 01:59N 44°24' E 008°55'0 0.0
2018-Jan-31 01:29N 44°24' E 008°55'0 0.0
2018-Jan-31 00:59N 44°24' E 008°55'0 0.0
2018-Jan-30 23:59N 44°24' E 008°55'0 0.0
2018-Jan-30 23:29N 44°24' E 008°55'0 0.0
2018-Jan-30 23:00N 44°24' E 008°55'1 2.1
2018-Jan-30 22:30N 44°24' E 008°56'9 9.1
2018-Jan-30 21:31N 44°15' E 008°59'918.2
2018-Jan-30 21:01N 44°07' E 008°54'918.1
2018-Jan-30 20:31N 43°60' E 008°45'918.2
2018-Jan-30 20:01N 43°53' E 008°38'918.3
2018-Jan-30 19:31N 43°45' E 008°31'918.1
2018-Jan-30 19:01N 43°38' E 008°23'5118.0
2018-Jan-30 16:12N 43°04' E 007°31'318.1
2018-Jan-30 16:00N 43°02' E 007°27'918.2
2018-Jan-30 15:30N 42°57' E 007°17'45019.1
2018-Jan-29 15:54N 38°00' W 000°07'1220.3
2018-Jan-29 15:20N 37°50' W 000°15'620.4
2018-Jan-29 15:01N 37°45' W 000°20'1020.3
2018-Jan-29 14:31N 37°37' W 000°27'1019.5
2018-Jan-29 14:01N 37°30' W 000°36'1019.4
2018-Jan-29 13:30N 37°23' W 000°45'1019.2
2018-Jan-29 13:00N 37°17' W 000°54'1019.2
2018-Jan-29 12:30N 37°10' W 001°03'  
Track history (hours):
 
Tides and Currents Weather Stations Pressure Air Temp Water Temp Dewpoint Dewpoint Depression Visibility Wind Speed Wind Dir Waves Ship Positions

Tubul

Last reported at 2018-Feb-07 04:00 UTC. Time now 2018-Feb-21 13:27 UTC.
Position N 31°03' E 032°19'.
Warning: this ship's position is 14 days out of date.

Length 300 m; draft 11.1 m.

Type: Ship (hazmat cat A). MMSI: 636014647.

Date/timePositionNaut miles runAvg speedWind from/ knotsBaromVisibWave heightAir tempDewpointWater temp
2018-Feb-07 04:00N 31°03' E 032°19'4 8.6
2018-Feb-07 03:30N 31°07' E 032°19'4 7.3
2018-Feb-07 02:59N 31°11' E 032°20'3 6.6
2018-Feb-07 02:30N 31°14' E 032°21'510.3
2018-Feb-07 02:00N 31°19' E 032°22'7 7.3
2018-Feb-07 01:00N 31°26' E 032°23'3 6.4
2018-Feb-07 00:29N 31°25' E 032°19'0 0.3
2018-Feb-06 23:59N 31°25' E 032°19'0 0.0
2018-Feb-06 23:20N 31°25' E 032°19'1 0.2
2018-Feb-06 20:34N 31°25' E 032°20'0 2.9
2018-Feb-06 20:30N 31°25' E 032°20'3 5.5
2018-Feb-06 20:00N 31°27' E 032°17'612.8
2018-Feb-06 19:30N 31°32' E 032°12'1717.3
2018-Feb-06 18:30N 31°43' E 031°57'917.9
2018-Feb-06 18:00N 31°38' E 031°48'  
2018-Feb-03 06:29N 35°07' E 017°50'4012.3
2018-Feb-03 03:13N 35°16' E 017°02'9511.6
2018-Feb-02 19:00N 35°41' E 015°09'511.1
2018-Feb-02 18:30N 35°42' E 015°03'611.0
2018-Feb-02 18:00N 35°44' E 014°56'511.0
2018-Feb-02 17:30N 35°46' E 014°50'611.1
2018-Feb-02 17:00N 35°47' E 014°43'611.3
2018-Feb-02 16:30N 35°48' E 014°36'3 3.2
2018-Feb-02 15:28N 35°49' E 014°32'0 0.0
2018-Feb-02 14:26N 35°49' E 014°32'0 0.0
2018-Feb-02 13:55N 35°49' E 014°32'0 0.0
2018-Feb-02 13:28N 35°49' E 014°32'0 0.0
2018-Feb-02 12:57N 35°49' E 014°32'0 0.0
2018-Feb-02 12:26N 35°49' E 014°32'0 0.0
2018-Feb-02 11:37N 35°49' E 014°32'0 0.0
2018-Feb-02 07:24N 35°49' E 014°32'0 0.0
2018-Feb-02 07:00N 35°49' E 014°32'1 1.3
2018-Feb-02 06:31N 35°49' E 014°33'4 7.2
2018-Feb-02 06:00N 35°47' E 014°36'5 9.5
2018-Feb-02 05:30N 35°44' E 014°32'5 9.4
2018-Feb-02 05:00N 35°43' E 014°26'713.1
2018-Feb-02 04:30N 35°47' E 014°19'917.3
2018-Feb-02 04:00N 35°53' E 014°12'918.6
2018-Feb-02 03:30N 36°00' E 014°05'1019.3
2018-Feb-02 03:00N 36°07' E 013°56'919.0
2018-Feb-02 02:30N 36°13' E 013°48'1019.2
2018-Feb-02 02:00N 36°20' E 013°39'1019.3
2018-Feb-02 01:30N 36°27' E 013°31'917.9
2018-Feb-02 01:00N 36°34' E 013°24'1018.4
2018-Feb-02 00:27N 36°39' E 013°13'2319.2
2018-Feb-01 23:15N 36°56' E 012°53'518.0
2018-Feb-01 22:58N 36°60' E 012°49'38920.2
2018-Feb-01 03:43N 42°59' E 009°36'1520.6
2018-Feb-01 03:01N 43°14' E 009°31'1020.1
2018-Feb-01 02:31N 43°23' E 009°27'1019.6
2018-Feb-01 02:01N 43°33' E 009°24'1019.8
2018-Feb-01 01:31N 43°42' E 009°19'1019.9
2018-Feb-01 01:01N 43°51' E 009°14'1019.8
2018-Feb-01 00:31N 44°00' E 009°09'1020.3
2018-Feb-01 00:01N 44°10' E 009°03'1515.4
2018-Jan-31 23:00N 44°24' E 008°55'0 0.7
2018-Jan-31 22:29N 44°24' E 008°55'0 0.0
2018-Jan-31 20:59N 44°24' E 008°55'0 0.0
2018-Jan-31 20:29N 44°24' E 008°55'0 0.0
2018-Jan-31 19:59N 44°24' E 008°55'0 0.0
2018-Jan-31 19:29N 44°24' E 008°55'0 0.0
2018-Jan-31 18:59N 44°24' E 008°55'0 0.0
2018-Jan-31 18:29N 44°24' E 008°55'0 0.0
2018-Jan-31 17:59N 44°24' E 008°55'0 0.0
2018-Jan-31 17:29N 44°24' E 008°55'0 0.0
2018-Jan-31 16:59N 44°24' E 008°55'0 0.0
2018-Jan-31 16:29N 44°24' E 008°55'0 0.0
2018-Jan-31 15:59N 44°24' E 008°55'0 0.0
2018-Jan-31 15:29N 44°24' E 008°55'0 0.0
2018-Jan-31 14:59N 44°24' E 008°55'0 0.0
2018-Jan-31 14:29N 44°24' E 008°55'0 0.0
2018-Jan-31 12:59N 44°24' E 008°55'0 0.0
2018-Jan-31 12:29N 44°24' E 008°55'0 0.0
2018-Jan-31 11:56N 44°24' E 008°55'0 0.0
2018-Jan-31 11:29N 44°24' E 008°55'0 0.0
2018-Jan-31 10:59N 44°24' E 008°55'0 0.0
2018-Jan-31 10:20N 44°24' E 008°55'0 0.0
2018-Jan-31 09:59N 44°24' E 008°55'0 0.0
2018-Jan-31 09:23N 44°24' E 008°55'0 0.0
2018-Jan-31 08:59N 44°24' E 008°55'0 0.0
2018-Jan-31 08:29N 44°24' E 008°55'0 0.0
2018-Jan-31 07:59N 44°24' E 008°55'0 0.0
2018-Jan-31 07:29N 44°24' E 008°55'0 0.0
2018-Jan-31 06:56N 44°24' E 008°55'0 0.0
2018-Jan-31 06:29N 44°24' E 008°55'0 0.0
2018-Jan-31 05:56N 44°24' E 008°55'0 0.0
2018-Jan-31 05:29N 44°24' E 008°55'0 0.0
2018-Jan-31 04:59N 44°24' E 008°55'0 0.0
2018-Jan-31 04:26N 44°24' E 008°55'0 0.0
2018-Jan-31 03:59N 44°24' E 008°55'0 0.0
2018-Jan-31 03:29N 44°24' E 008°55'0 0.0
2018-Jan-31 02:59N 44°24' E 008°55'0 0.0
2018-Jan-31 02:29N 44°24' E 008°55'0 0.0
2018-Jan-31 01:59N 44°24' E 008°55'0 0.0
2018-Jan-31 01:29N 44°24' E 008°55'0 0.0
2018-Jan-31 00:59N 44°24' E 008°55'0 0.0
2018-Jan-30 23:59N 44°24' E 008°55'0 0.0
2018-Jan-30 23:29N 44°24' E 008°55'0 0.0
2018-Jan-30 23:00N 44°24' E 008°55'1 2.1
2018-Jan-30 22:30N 44°24' E 008°56'9 9.1
2018-Jan-30 21:31N 44°15' E 008°59'918.2
2018-Jan-30 21:01N 44°07' E 008°54'918.1
2018-Jan-30 20:31N 43°60' E 008°45'918.2
2018-Jan-30 20:01N 43°53' E 008°38'918.3
2018-Jan-30 19:31N 43°45' E 008°31'918.1
2018-Jan-30 19:01N 43°38' E 008°23'5118.0
2018-Jan-30 16:12N 43°04' E 007°31'318.1
2018-Jan-30 16:00N 43°02' E 007°27'918.2
2018-Jan-30 15:30N 42°57' E 007°17'45019.1
2018-Jan-29 15:54N 38°00' W 000°07'1220.3
2018-Jan-29 15:20N 37°50' W 000°15'620.4
2018-Jan-29 15:01N 37°45' W 000°20'1020.3
2018-Jan-29 14:31N 37°37' W 000°27'1019.5
2018-Jan-29 14:01N 37°30' W 000°36'1019.4
2018-Jan-29 13:30N 37°23' W 000°45'1019.2
2018-Jan-29 13:00N 37°17' W 000°54'1019.2
2018-Jan-29 12:30N 37°10' W 001°03'  

Dump ship's entire track history